sensor_id;sensor_type;location;lat;lon;timestamp;temperature;humidity
49236;DHT22;35067;48.134;8.378;2024-01-06T00:00:12;3.80;99.90
49236;DHT22;35067;48.134;8.378;2024-01-06T00:01:16;3.80;99.90
49236;DHT22;35067;48.134;8.378;2024-01-06T00:02:17;3.80;99.90
49236;DHT22;35067;48.134;8.378;2024-01-06T00:03:18;3.80;99.90
49236;DHT22;35067;48.134;8.378;2024-01-06T00:04:18;3.80;99.90
49236;DHT22;35067;48.134;8.378;2024-01-06T00:05:19;3.80;99.90
49236;DHT22;35067;48.134;8.378;2024-01-06T00:06:19;3.80;99.90
49236;DHT22;35067;48.134;8.378;2024-01-06T00:07:20;3.90;99.90
49236;DHT22;35067;48.134;8.378;2024-01-06T00:08:21;3.90;99.90
49236;DHT22;35067;48.134;8.378;2024-01-06T00:09:22;4.00;99.90
49236;DHT22;35067;48.134;8.378;2024-01-06T00:10:22;4.00;99.90
49236;DHT22;35067;48.134;8.378;2024-01-06T00:11:23;4.00;99.90
49236;DHT22;35067;48.134;8.378;2024-01-06T00:12:24;4.00;99.90
49236;DHT22;35067;48.134;8.378;2024-01-06T00:13:24;4.00;99.90
49236;DHT22;35067;48.134;8.378;2024-01-06T00:14:25;3.90;99.90
49236;DHT22;35067;48.134;8.378;2024-01-06T00:15:26;3.90;99.90
49236;DHT22;35067;48.134;8.378;2024-01-06T00:16:26;4.00;99.90
49236;DHT22;35067;48.134;8.378;2024-01-06T00:17:27;4.00;99.90
49236;DHT22;35067;48.134;8.378;2024-01-06T00:18:28;4.10;99.90
49236;DHT22;35067;48.134;8.378;2024-01-06T00:19:28;4.10;99.90
49236;DHT22;35067;48.134;8.378;2024-01-06T00:20:29;4.10;99.90
49236;DHT22;35067;48.134;8.378;2024-01-06T00:21:30;4.10;99.90
49236;DHT22;35067;48.134;8.378;2024-01-06T00:22:30;4.00;99.90
49236;DHT22;35067;48.134;8.378;2024-01-06T00:23:31;4.00;99.90
49236;DHT22;35067;48.134;8.378;2024-01-06T00:24:32;4.00;99.90
49236;DHT22;35067;48.134;8.378;2024-01-06T00:25:32;4.00;99.90
49236;DHT22;35067;48.134;8.378;2024-01-06T00:26:33;4.00;99.90
49236;DHT22;35067;48.134;8.378;2024-01-06T00:27:34;4.00;99.90
49236;DHT22;35067;48.134;8.378;2024-01-06T00:28:34;4.10;99.90
49236;DHT22;35067;48.134;8.378;2024-01-06T00:29:35;4.10;99.90
49236;DHT22;35067;48.134;8.378;2024-01-06T00:30:36;4.20;99.90
49236;DHT22;35067;48.134;8.378;2024-01-06T00:31:36;4.20;99.90
49236;DHT22;35067;48.134;8.378;2024-01-06T00:32:37;4.20;99.90
49236;DHT22;35067;48.134;8.378;2024-01-06T00:33:38;4.20;99.90
49236;DHT22;35067;48.134;8.378;2024-01-06T00:34:39;4.10;99.90
49236;DHT22;35067;48.134;8.378;2024-01-06T00:35:40;4.10;99.90
49236;DHT22;35067;48.134;8.378;2024-01-06T00:36:40;4.10;99.90
49236;DHT22;35067;48.134;8.378;2024-01-06T00:37:41;4.10;99.90
49236;DHT22;35067;48.134;8.378;2024-01-06T00:38:42;4.20;99.90
49236;DHT22;35067;48.134;8.378;2024-01-06T00:39:42;4.20;99.90
49236;DHT22;35067;48.134;8.378;2024-01-06T00:40:43;4.20;99.90
49236;DHT22;35067;48.134;8.378;2024-01-06T00:41:44;4.20;99.90
49236;DHT22;35067;48.134;8.378;2024-01-06T00:42:44;4.20;99.90
49236;DHT22;35067;48.134;8.378;2024-01-06T00:43:45;4.20;99.90
49236;DHT22;35067;48.134;8.378;2024-01-06T00:44:46;4.20;99.90
49236;DHT22;35067;48.134;8.378;2024-01-06T00:45:47;4.20;99.90
49236;DHT22;35067;48.134;8.378;2024-01-06T00:46:47;4.20;99.90
49236;DHT22;35067;48.134;8.378;2024-01-06T00:47:48;4.10;99.90
49236;DHT22;35067;48.134;8.378;2024-01-06T00:48:49;4.10;99.90
49236;DHT22;35067;48.134;8.378;2024-01-06T00:49:50;4.10;99.90
49236;DHT22;35067;48.134;8.378;2024-01-06T00:50:51;4.10;99.90
49236;DHT22;35067;48.134;8.378;2024-01-06T00:51:51;4.00;99.90
49236;DHT22;35067;48.134;8.378;2024-01-06T00:52:52;4.10;99.90
49236;DHT22;35067;48.134;8.378;2024-01-06T00:53:53;4.10;99.90
49236;DHT22;35067;48.134;8.378;2024-01-06T00:54:54;4.10;99.90
49236;DHT22;35067;48.134;8.378;2024-01-06T00:55:54;4.10;99.90
49236;DHT22;35067;48.134;8.378;2024-01-06T00:56:55;4.10;99.90
49236;DHT22;35067;48.134;8.378;2024-01-06T00:57:56;4.10;99.90
49236;DHT22;35067;48.134;8.378;2024-01-06T00:58:56;4.10;99.90
49236;DHT22;35067;48.134;8.378;2024-01-06T00:59:57;4.10;99.90
49236;DHT22;35067;48.134;8.378;2024-01-06T01:00:57;4.00;99.90
49236;DHT22;35067;48.134;8.378;2024-01-06T01:01:58;4.10;99.90
49236;DHT22;35067;48.134;8.378;2024-01-06T01:02:59;4.10;99.90
49236;DHT22;35067;48.134;8.378;2024-01-06T01:03:59;4.10;99.90
49236;DHT22;35067;48.134;8.378;2024-01-06T01:05:00;4.00;99.90
49236;DHT22;35067;48.134;8.378;2024-01-06T01:06:02;4.00;99.90
49236;DHT22;35067;48.134;8.378;2024-01-06T01:07:03;4.00;99.90
49236;DHT22;35067;48.134;8.378;2024-01-06T01:08:04;4.00;99.90
49236;DHT22;35067;48.134;8.378;2024-01-06T01:09:05;4.00;99.90
49236;DHT22;35067;48.134;8.378;2024-01-06T01:10:06;4.00;99.90
49236;DHT22;35067;48.134;8.378;2024-01-06T01:11:06;4.00;99.90
49236;DHT22;35067;48.134;8.378;2024-01-06T01:12:07;4.10;99.90
49236;DHT22;35067;48.134;8.378;2024-01-06T01:13:08;4.10;99.90
49236;DHT22;35067;48.134;8.378;2024-01-06T01:14:08;4.10;99.90
49236;DHT22;35067;48.134;8.378;2024-01-06T01:15:09;4.10;99.90
49236;DHT22;35067;48.134;8.378;2024-01-06T01:16:10;4.10;99.90
49236;DHT22;35067;48.134;8.378;2024-01-06T01:17:11;4.20;99.90
49236;DHT22;35067;48.134;8.378;2024-01-06T01:18:11;4.20;99.90
49236;DHT22;35067;48.134;8.378;2024-01-06T01:19:12;4.20;99.90
49236;DHT22;35067;48.134;8.378;2024-01-06T01:20:14;4.20;99.90
49236;DHT22;35067;48.134;8.378;2024-01-06T01:21:14;4.20;99.90
49236;DHT22;35067;48.134;8.378;2024-01-06T01:22:15;4.20;99.90
49236;DHT22;35067;48.134;8.378;2024-01-06T01:23:16;4.20;99.90
49236;DHT22;35067;48.134;8.378;2024-01-06T01:24:16;4.20;99.90
49236;DHT22;35067;48.134;8.378;2024-01-06T01:25:17;4.30;99.90
49236;DHT22;35067;48.134;8.378;2024-01-06T01:26:18;4.30;99.90
49236;DHT22;35067;48.134;8.378;2024-01-06T01:27:19;4.30;99.90
49236;DHT22;35067;48.134;8.378;2024-01-06T01:28:19;4.30;99.90
49236;DHT22;35067;48.134;8.378;2024-01-06T01:29:20;4.20;99.90
49236;DHT22;35067;48.134;8.378;2024-01-06T01:30:21;4.20;99.90
49236;DHT22;35067;48.134;8.378;2024-01-06T01:31:21;4.30;99.90
49236;DHT22;35067;48.134;8.378;2024-01-06T01:32:22;4.30;99.90
49236;DHT22;35067;48.134;8.378;2024-01-06T01:33:23;4.30;99.90
49236;DHT22;35067;48.134;8.378;2024-01-06T01:34:24;4.30;99.90
49236;DHT22;35067;48.134;8.378;2024-01-06T01:35:25;4.30;99.90
49236;DHT22;35067;48.134;8.378;2024-01-06T01:36:25;4.30;99.90
49236;DHT22;35067;48.134;8.378;2024-01-06T01:37:26;4.40;99.90
49236;DHT22;35067;48.134;8.378;2024-01-06T01:38:27;4.40;99.90
49236;DHT22;35067;48.134;8.378;2024-01-06T01:39:27;4.40;99.90
49236;DHT22;35067;48.134;8.378;2024-01-06T01:40:28;4.30;99.90
49236;DHT22;35067;48.134;8.378;2024-01-06T01:41:29;4.40;99.90
49236;DHT22;35067;48.134;8.378;2024-01-06T01:42:29;4.40;99.90
49236;DHT22;35067;48.134;8.378;2024-01-06T01:43:30;4.40;99.90
49236;DHT22;35067;48.134;8.378;2024-01-06T01:44:31;4.30;99.90
49236;DHT22;35067;48.134;8.378;2024-01-06T01:45:31;4.20;99.90
49236;DHT22;35067;48.134;8.378;2024-01-06T01:46:32;4.20;99.90
49236;DHT22;35067;48.134;8.378;2024-01-06T01:47:33;4.20;99.90
49236;DHT22;35067;48.134;8.378;2024-01-06T01:48:34;4.20;99.90
49236;DHT22;35067;48.134;8.378;2024-01-06T01:49:35;4.20;99.90
49236;DHT22;35067;48.134;8.378;2024-01-06T01:50:36;4.20;99.90
49236;DHT22;35067;48.134;8.378;2024-01-06T01:51:37;4.20;99.90
49236;DHT22;35067;48.134;8.378;2024-01-06T01:52:40;4.20;99.90
49236;DHT22;35067;48.134;8.378;2024-01-06T01:53:42;4.20;99.90
49236;DHT22;35067;48.134;8.378;2024-01-06T01:54:43;4.20;99.90
49236;DHT22;35067;48.134;8.378;2024-01-06T01:55:47;4.20;99.90
49236;DHT22;35067;48.134;8.378;2024-01-06T01:56:48;4.20;99.90
49236;DHT22;35067;48.134;8.378;2024-01-06T01:57:48;4.20;99.90
49236;DHT22;35067;48.134;8.378;2024-01-06T01:58:49;4.10;99.90
49236;DHT22;35067;48.134;8.378;2024-01-06T01:59:51;4.10;99.90
49236;DHT22;35067;48.134;8.378;2024-01-06T02:00:53;4.20;99.90
49236;DHT22;35067;48.134;8.378;2024-01-06T02:01:54;4.20;99.90
49236;DHT22;35067;48.134;8.378;2024-01-06T02:02:57;4.30;99.90
49236;DHT22;35067;48.134;8.378;2024-01-06T02:03:59;4.30;99.90
49236;DHT22;35067;48.134;8.378;2024-01-06T02:04:59;4.30;99.90
49236;DHT22;35067;48.134;8.378;2024-01-06T02:06:00;4.30;99.90
49236;DHT22;35067;48.134;8.378;2024-01-06T02:07:01;4.20;99.90
49236;DHT22;35067;48.134;8.378;2024-01-06T02:08:02;4.20;99.90
49236;DHT22;35067;48.134;8.378;2024-01-06T02:09:03;4.30;99.90
49236;DHT22;35067;48.134;8.378;2024-01-06T02:10:04;4.30;99.90
49236;DHT22;35067;48.134;8.378;2024-01-06T02:11:06;4.20;99.90
49236;DHT22;35067;48.134;8.378;2024-01-06T02:12:06;4.10;99.90
49236;DHT22;35067;48.134;8.378;2024-01-06T02:13:11;4.10;99.90
49236;DHT22;35067;48.134;8.378;2024-01-06T02:14:12;4.10;99.90
49236;DHT22;35067;48.134;8.378;2024-01-06T02:15:13;4.00;99.90
49236;DHT22;35067;48.134;8.378;2024-01-06T02:16:13;4.10;99.90
49236;DHT22;35067;48.134;8.378;2024-01-06T02:17:14;4.10;99.90
49236;DHT22;35067;48.134;8.378;2024-01-06T02:18:15;4.10;99.90
49236;DHT22;35067;48.134;8.378;2024-01-06T02:19:16;4.10;99.90
49236;DHT22;35067;48.134;8.378;2024-01-06T02:20:18;4.10;99.90
49236;DHT22;35067;48.134;8.378;2024-01-06T02:21:21;4.20;99.90
49236;DHT22;35067;48.134;8.378;2024-01-06T02:22:23;4.20;99.90
49236;DHT22;35067;48.134;8.378;2024-01-06T02:23:23;4.20;99.90
49236;DHT22;35067;48.134;8.378;2024-01-06T02:24:24;4.10;99.90
49236;DHT22;35067;48.134;8.378;2024-01-06T02:25:25;4.20;99.90
49236;DHT22;35067;48.134;8.378;2024-01-06T02:26:25;4.20;99.90
49236;DHT22;35067;48.134;8.378;2024-01-06T02:27:26;4.20;99.90
49236;DHT22;35067;48.134;8.378;2024-01-06T02:28:27;4.20;99.90
49236;DHT22;35067;48.134;8.378;2024-01-06T02:29:27;4.10;99.90
49236;DHT22;35067;48.134;8.378;2024-01-06T02:30:28;4.10;99.90
49236;DHT22;35067;48.134;8.378;2024-01-06T02:31:29;4.00;99.90
49236;DHT22;35067;48.134;8.378;2024-01-06T02:32:29;4.00;99.90
49236;DHT22;35067;48.134;8.378;2024-01-06T02:33:30;4.10;99.90
49236;DHT22;35067;48.134;8.378;2024-01-06T02:34:30;4.10;99.90
49236;DHT22;35067;48.134;8.378;2024-01-06T02:35:33;4.00;99.90
49236;DHT22;35067;48.134;8.378;2024-01-06T02:36:33;3.90;99.90
49236;DHT22;35067;48.134;8.378;2024-01-06T02:37:34;3.90;99.90
49236;DHT22;35067;48.134;8.378;2024-01-06T02:38:35;3.80;99.90
49236;DHT22;35067;48.134;8.378;2024-01-06T02:39:35;3.80;99.90
49236;DHT22;35067;48.134;8.378;2024-01-06T02:40:36;3.90;99.90
49236;DHT22;35067;48.134;8.378;2024-01-06T02:41:37;3.90;99.90
49236;DHT22;35067;48.134;8.378;2024-01-06T02:42:37;4.00;99.90
49236;DHT22;35067;48.134;8.378;2024-01-06T02:43:38;4.00;99.90
49236;DHT22;35067;48.134;8.378;2024-01-06T02:44:39;4.00;99.90
49236;DHT22;35067;48.134;8.378;2024-01-06T02:45:39;4.00;99.90
49236;DHT22;35067;48.134;8.378;2024-01-06T02:46:40;4.00;99.90
49236;DHT22;35067;48.134;8.378;2024-01-06T02:47:41;4.00;99.90
49236;DHT22;35067;48.134;8.378;2024-01-06T02:48:41;3.90;99.90
49236;DHT22;35067;48.134;8.378;2024-01-06T02:49:42;3.90;99.90
49236;DHT22;35067;48.134;8.378;2024-01-06T02:50:43;3.80;99.90
49236;DHT22;35067;48.134;8.378;2024-01-06T02:51:44;3.90;99.90
49236;DHT22;35067;48.134;8.378;2024-01-06T02:52:45;3.80;99.90
49236;DHT22;35067;48.134;8.378;2024-01-06T02:53:45;3.70;99.90
49236;DHT22;35067;48.134;8.378;2024-01-06T02:54:46;3.60;99.90
49236;DHT22;35067;48.134;8.378;2024-01-06T02:55:47;3.60;99.90
49236;DHT22;35067;48.134;8.378;2024-01-06T02:56:47;3.50;99.90
49236;DHT22;35067;48.134;8.378;2024-01-06T02:57:48;3.50;99.90
49236;DHT22;35067;48.134;8.378;2024-01-06T02:58:48;3.40;99.90
49236;DHT22;35067;48.134;8.378;2024-01-06T02:59:49;3.40;99.90
49236;DHT22;35067;48.134;8.378;2024-01-06T03:00:50;3.40;99.90
49236;DHT22;35067;48.134;8.378;2024-01-06T03:01:51;3.40;99.90
49236;DHT22;35067;48.134;8.378;2024-01-06T03:02:52;3.50;99.90
49236;DHT22;35067;48.134;8.378;2024-01-06T03:03:52;3.50;99.90
49236;DHT22;35067;48.134;8.378;2024-01-06T03:04:53;3.50;99.90
49236;DHT22;35067;48.134;8.378;2024-01-06T03:05:55;3.50;99.90
49236;DHT22;35067;48.134;8.378;2024-01-06T03:06:56;3.50;99.90
49236;DHT22;35067;48.134;8.378;2024-01-06T03:07:57;3.40;99.90
49236;DHT22;35067;48.134;8.378;2024-01-06T03:08:57;3.40;99.90
49236;DHT22;35067;48.134;8.378;2024-01-06T03:09:58;3.40;99.90
49236;DHT22;35067;48.134;8.378;2024-01-06T03:10:59;3.50;99.90
49236;DHT22;35067;48.134;8.378;2024-01-06T03:11:59;3.40;99.90
49236;DHT22;35067;48.134;8.378;2024-01-06T03:13:00;3.40;99.90
49236;DHT22;35067;48.134;8.378;2024-01-06T03:14:01;3.40;99.90
49236;DHT22;35067;48.134;8.378;2024-01-06T03:15:01;3.40;99.90
49236;DHT22;35067;48.134;8.378;2024-01-06T03:16:03;3.50;99.90
49236;DHT22;35067;48.134;8.378;2024-01-06T03:17:05;3.40;99.90
49236;DHT22;35067;48.134;8.378;2024-01-06T03:18:06;3.50;99.90
49236;DHT22;35067;48.134;8.378;2024-01-06T03:19:07;3.40;99.90
49236;DHT22;35067;48.134;8.378;2024-01-06T03:20:08;3.50;99.90
49236;DHT22;35067;48.134;8.378;2024-01-06T03:21:19;3.50;99.90
49236;DHT22;35067;48.134;8.378;2024-01-06T03:22:20;3.40;99.90
49236;DHT22;35067;48.134;8.378;2024-01-06T03:23:21;3.40;99.90
49236;DHT22;35067;48.134;8.378;2024-01-06T03:24:23;3.40;99.90
49236;DHT22;35067;48.134;8.378;2024-01-06T03:25:24;3.40;99.90
49236;DHT22;35067;48.134;8.378;2024-01-06T03:26:25;3.50;99.90
49236;DHT22;35067;48.134;8.378;2024-01-06T03:27:26;3.40;99.90
49236;DHT22;35067;48.134;8.378;2024-01-06T03:28:27;3.40;99.90
49236;DHT22;35067;48.134;8.378;2024-01-06T03:29:27;3.40;99.90
49236;DHT22;35067;48.134;8.378;2024-01-06T03:30:28;3.40;99.90
49236;DHT22;35067;48.134;8.378;2024-01-06T03:31:29;3.40;99.90
49236;DHT22;35067;48.134;8.378;2024-01-06T03:32:30;3.30;99.90
49236;DHT22;35067;48.134;8.378;2024-01-06T03:33:31;3.30;99.90
49236;DHT22;35067;48.134;8.378;2024-01-06T03:34:31;3.30;99.90
49236;DHT22;35067;48.134;8.378;2024-01-06T03:35:32;3.30;99.90
49236;DHT22;35067;48.134;8.378;2024-01-06T03:36:33;3.30;99.90
49236;DHT22;35067;48.134;8.378;2024-01-06T03:37:34;3.30;99.90
49236;DHT22;35067;48.134;8.378;2024-01-06T03:38:34;3.30;99.90
49236;DHT22;35067;48.134;8.378;2024-01-06T03:39:35;3.30;99.90
49236;DHT22;35067;48.134;8.378;2024-01-06T03:40:36;3.40;99.90
49236;DHT22;35067;48.134;8.378;2024-01-06T03:41:36;3.30;99.90
49236;DHT22;35067;48.134;8.378;2024-01-06T03:42:38;3.40;99.90
49236;DHT22;35067;48.134;8.378;2024-01-06T03:43:38;3.40;99.90
49236;DHT22;35067;48.134;8.378;2024-01-06T03:44:39;3.40;99.90
49236;DHT22;35067;48.134;8.378;2024-01-06T03:45:39;3.40;99.90
49236;DHT22;35067;48.134;8.378;2024-01-06T03:46:40;3.40;99.90
49236;DHT22;35067;48.134;8.378;2024-01-06T03:47:41;3.40;99.90
49236;DHT22;35067;48.134;8.378;2024-01-06T03:48:42;3.30;99.90
49236;DHT22;35067;48.134;8.378;2024-01-06T03:49:42;3.30;99.90
49236;DHT22;35067;48.134;8.378;2024-01-06T03:50:43;3.20;99.90
49236;DHT22;35067;48.134;8.378;2024-01-06T03:51:43;3.20;99.90
49236;DHT22;35067;48.134;8.378;2024-01-06T03:52:44;3.20;99.90
49236;DHT22;35067;48.134;8.378;2024-01-06T03:53:45;3.20;99.90
49236;DHT22;35067;48.134;8.378;2024-01-06T03:54:46;3.20;99.90
49236;DHT22;35067;48.134;8.378;2024-01-06T03:55:46;3.20;99.90
49236;DHT22;35067;48.134;8.378;2024-01-06T03:56:47;3.30;99.90
49236;DHT22;35067;48.134;8.378;2024-01-06T03:57:48;3.30;99.90
49236;DHT22;35067;48.134;8.378;2024-01-06T03:58:48;3.40;99.90
49236;DHT22;35067;48.134;8.378;2024-01-06T03:59:49;3.40;99.90
49236;DHT22;35067;48.134;8.378;2024-01-06T04:00:49;3.50;99.90
49236;DHT22;35067;48.134;8.378;2024-01-06T04:01:50;3.60;99.90
49236;DHT22;35067;48.134;8.378;2024-01-06T04:02:51;3.60;99.90
49236;DHT22;35067;48.134;8.378;2024-01-06T04:03:51;3.50;99.90
49236;DHT22;35067;48.134;8.378;2024-01-06T04:04:52;3.50;99.90
49236;DHT22;35067;48.134;8.378;2024-01-06T04:05:53;3.40;99.90
49236;DHT22;35067;48.134;8.378;2024-01-06T04:06:54;3.40;99.90
49236;DHT22;35067;48.134;8.378;2024-01-06T04:07:54;3.40;99.90
49236;DHT22;35067;48.134;8.378;2024-01-06T04:08:55;3.40;99.90
49236;DHT22;35067;48.134;8.378;2024-01-06T04:09:56;3.30;99.90
49236;DHT22;35067;48.134;8.378;2024-01-06T04:10:56;3.30;99.90
49236;DHT22;35067;48.134;8.378;2024-01-06T04:11:57;3.30;99.90
49236;DHT22;35067;48.134;8.378;2024-01-06T04:12:58;3.40;99.90
49236;DHT22;35067;48.134;8.378;2024-01-06T04:13:58;3.40;99.90
49236;DHT22;35067;48.134;8.378;2024-01-06T04:14:59;3.40;99.90
49236;DHT22;35067;48.134;8.378;2024-01-06T04:16:00;3.40;99.90
49236;DHT22;35067;48.134;8.378;2024-01-06T04:17:00;3.40;99.90
49236;DHT22;35067;48.134;8.378;2024-01-06T04:18:02;3.40;99.90
49236;DHT22;35067;48.134;8.378;2024-01-06T04:19:04;3.50;99.90
49236;DHT22;35067;48.134;8.378;2024-01-06T04:20:08;3.50;99.90
49236;DHT22;35067;48.134;8.378;2024-01-06T04:21:11;3.50;99.90
49236;DHT22;35067;48.134;8.378;2024-01-06T04:22:12;3.50;99.90
49236;DHT22;35067;48.134;8.378;2024-01-06T04:23:13;3.50;99.90
49236;DHT22;35067;48.134;8.378;2024-01-06T04:24:14;3.60;99.90
49236;DHT22;35067;48.134;8.378;2024-01-06T04:25:14;3.50;99.90
49236;DHT22;35067;48.134;8.378;2024-01-06T04:26:15;3.50;99.90
49236;DHT22;35067;48.134;8.378;2024-01-06T04:27:16;3.50;99.90
49236;DHT22;35067;48.134;8.378;2024-01-06T04:28:16;3.60;99.90
49236;DHT22;35067;48.134;8.378;2024-01-06T04:29:17;3.50;99.90
49236;DHT22;35067;48.134;8.378;2024-01-06T04:30:18;3.50;99.90
49236;DHT22;35067;48.134;8.378;2024-01-06T04:31:20;3.50;99.90
49236;DHT22;35067;48.134;8.378;2024-01-06T04:32:21;3.60;99.90
49236;DHT22;35067;48.134;8.378;2024-01-06T04:33:22;3.60;99.90
49236;DHT22;35067;48.134;8.378;2024-01-06T04:34:23;3.70;99.90
49236;DHT22;35067;48.134;8.378;2024-01-06T04:35:25;3.70;99.90
49236;DHT22;35067;48.134;8.378;2024-01-06T04:36:26;3.70;99.90
49236;DHT22;35067;48.134;8.378;2024-01-06T04:37:26;3.60;99.90
49236;DHT22;35067;48.134;8.378;2024-01-06T04:38:27;3.50;99.90
49236;DHT22;35067;48.134;8.378;2024-01-06T04:39:28;3.50;99.90
49236;DHT22;35067;48.134;8.378;2024-01-06T04:40:29;3.60;99.90
49236;DHT22;35067;48.134;8.378;2024-01-06T04:41:29;3.60;99.90
49236;DHT22;35067;48.134;8.378;2024-01-06T04:42:30;3.60;99.90
49236;DHT22;35067;48.134;8.378;2024-01-06T04:43:31;3.60;99.90
49236;DHT22;35067;48.134;8.378;2024-01-06T04:44:31;3.60;99.90
49236;DHT22;35067;48.134;8.378;2024-01-06T04:45:32;3.60;99.90
49236;DHT22;35067;48.134;8.378;2024-01-06T04:46:33;3.60;99.90
49236;DHT22;35067;48.134;8.378;2024-01-06T04:47:34;3.60;99.90
49236;DHT22;35067;48.134;8.378;2024-01-06T04:48:34;3.60;99.90
49236;DHT22;35067;48.134;8.378;2024-01-06T04:49:35;3.70;99.90
49236;DHT22;35067;48.134;8.378;2024-01-06T04:50:35;3.70;99.90
49236;DHT22;35067;48.134;8.378;2024-01-06T04:51:36;3.60;99.90
49236;DHT22;35067;48.134;8.378;2024-01-06T04:52:37;3.60;99.90
49236;DHT22;35067;48.134;8.378;2024-01-06T04:53:38;3.70;99.90
49236;DHT22;35067;48.134;8.378;2024-01-06T04:54:39;3.70;99.90
49236;DHT22;35067;48.134;8.378;2024-01-06T04:55:39;3.80;99.90
49236;DHT22;35067;48.134;8.378;2024-01-06T04:56:40;3.90;99.90
49236;DHT22;35067;48.134;8.378;2024-01-06T04:57:41;3.90;99.90
49236;DHT22;35067;48.134;8.378;2024-01-06T04:58:42;3.80;99.90
49236;DHT22;35067;48.134;8.378;2024-01-06T04:59:42;3.80;99.90
49236;DHT22;35067;48.134;8.378;2024-01-06T05:00:43;3.80;99.90
49236;DHT22;35067;48.134;8.378;2024-01-06T05:01:43;3.90;99.90
49236;DHT22;35067;48.134;8.378;2024-01-06T05:02:44;3.90;99.90
49236;DHT22;35067;48.134;8.378;2024-01-06T05:03:45;3.90;99.90
49236;DHT22;35067;48.134;8.378;2024-01-06T05:04:46;3.90;99.90
49236;DHT22;35067;48.134;8.378;2024-01-06T05:05:46;3.90;99.90
49236;DHT22;35067;48.134;8.378;2024-01-06T05:06:47;3.80;99.90
49236;DHT22;35067;48.134;8.378;2024-01-06T05:07:48;3.90;99.90
49236;DHT22;35067;48.134;8.378;2024-01-06T05:08:49;3.90;99.90
49236;DHT22;35067;48.134;8.378;2024-01-06T05:09:49;3.90;99.90
49236;DHT22;35067;48.134;8.378;2024-01-06T05:10:52;3.90;99.90
49236;DHT22;35067;48.134;8.378;2024-01-06T05:11:54;3.80;99.90
49236;DHT22;35067;48.134;8.378;2024-01-06T05:12:54;3.90;99.90
49236;DHT22;35067;48.134;8.378;2024-01-06T05:13:55;3.90;99.90
49236;DHT22;35067;48.134;8.378;2024-01-06T05:14:56;3.80;99.90
49236;DHT22;35067;48.134;8.378;2024-01-06T05:15:56;3.70;99.90
49236;DHT22;35067;48.134;8.378;2024-01-06T05:16:57;3.70;99.90
49236;DHT22;35067;48.134;8.378;2024-01-06T05:17:58;3.80;99.90
49236;DHT22;35067;48.134;8.378;2024-01-06T05:18:58;3.80;99.90
49236;DHT22;35067;48.134;8.378;2024-01-06T05:19:59;3.70;99.90
49236;DHT22;35067;48.134;8.378;2024-01-06T05:21:01;3.80;99.90
49236;DHT22;35067;48.134;8.378;2024-01-06T05:22:02;3.90;99.90
49236;DHT22;35067;48.134;8.378;2024-01-06T05:23:03;3.90;99.90
49236;DHT22;35067;48.134;8.378;2024-01-06T05:24:04;3.90;99.90
49236;DHT22;35067;48.134;8.378;2024-01-06T05:25:05;3.90;99.90
49236;DHT22;35067;48.134;8.378;2024-01-06T05:26:06;4.00;99.90
49236;DHT22;35067;48.134;8.378;2024-01-06T05:27:07;4.10;99.90
49236;DHT22;35067;48.134;8.378;2024-01-06T05:28:07;4.00;99.90
49236;DHT22;35067;48.134;8.378;2024-01-06T05:29:08;4.00;99.90
49236;DHT22;35067;48.134;8.378;2024-01-06T05:30:09;4.20;99.90
49236;DHT22;35067;48.134;8.378;2024-01-06T05:31:10;4.10;99.90
49236;DHT22;35067;48.134;8.378;2024-01-06T05:32:10;4.10;99.90
49236;DHT22;35067;48.134;8.378;2024-01-06T05:33:12;4.10;99.90
49236;DHT22;35067;48.134;8.378;2024-01-06T05:34:13;4.10;99.90
49236;DHT22;35067;48.134;8.378;2024-01-06T05:35:16;4.10;99.90
49236;DHT22;35067;48.134;8.378;2024-01-06T05:36:19;4.10;99.90
49236;DHT22;35067;48.134;8.378;2024-01-06T05:37:20;4.10;99.90
49236;DHT22;35067;48.134;8.378;2024-01-06T05:38:21;4.00;99.90
49236;DHT22;35067;48.134;8.378;2024-01-06T05:39:22;4.00;99.90
49236;DHT22;35067;48.134;8.378;2024-01-06T05:40:23;4.00;99.90
49236;DHT22;35067;48.134;8.378;2024-01-06T05:41:23;4.00;99.90
49236;DHT22;35067;48.134;8.378;2024-01-06T05:42:24;4.00;99.90
49236;DHT22;35067;48.134;8.378;2024-01-06T05:43:25;4.00;99.90
49236;DHT22;35067;48.134;8.378;2024-01-06T05:44:26;3.90;99.90
49236;DHT22;35067;48.134;8.378;2024-01-06T05:45:26;4.00;99.90
49236;DHT22;35067;48.134;8.378;2024-01-06T05:46:27;3.90;99.90
49236;DHT22;35067;48.134;8.378;2024-01-06T05:47:28;3.80;99.90
49236;DHT22;35067;48.134;8.378;2024-01-06T05:48:28;3.80;99.90
49236;DHT22;35067;48.134;8.378;2024-01-06T05:49:29;3.70;99.90
49236;DHT22;35067;48.134;8.378;2024-01-06T05:50:30;3.70;99.90
49236;DHT22;35067;48.134;8.378;2024-01-06T05:51:30;3.70;99.90
49236;DHT22;35067;48.134;8.378;2024-01-06T05:52:31;3.60;99.90
49236;DHT22;35067;48.134;8.378;2024-01-06T05:53:32;3.70;99.90
49236;DHT22;35067;48.134;8.378;2024-01-06T05:54:33;3.70;99.90
49236;DHT22;35067;48.134;8.378;2024-01-06T05:55:34;3.80;99.90
49236;DHT22;35067;48.134;8.378;2024-01-06T05:56:34;3.70;99.90
49236;DHT22;35067;48.134;8.378;2024-01-06T05:57:35;3.80;99.90
49236;DHT22;35067;48.134;8.378;2024-01-06T05:58:36;3.70;99.90
49236;DHT22;35067;48.134;8.378;2024-01-06T05:59:36;3.70;99.90
49236;DHT22;35067;48.134;8.378;2024-01-06T06:00:37;3.80;99.90
49236;DHT22;35067;48.134;8.378;2024-01-06T06:01:39;3.80;99.90
49236;DHT22;35067;48.134;8.378;2024-01-06T06:02:39;3.80;99.90
49236;DHT22;35067;48.134;8.378;2024-01-06T06:03:40;3.90;99.90
49236;DHT22;35067;48.134;8.378;2024-01-06T06:04:41;3.90;99.90
49236;DHT22;35067;48.134;8.378;2024-01-06T06:05:42;3.90;99.90
49236;DHT22;35067;48.134;8.378;2024-01-06T06:06:42;3.90;99.90
49236;DHT22;35067;48.134;8.378;2024-01-06T06:07:43;4.00;99.90
49236;DHT22;35067;48.134;8.378;2024-01-06T06:08:44;4.00;99.90
49236;DHT22;35067;48.134;8.378;2024-01-06T06:09:45;4.00;99.90
49236;DHT22;35067;48.134;8.378;2024-01-06T06:10:47;4.10;99.90
49236;DHT22;35067;48.134;8.378;2024-01-06T06:12:05;4.00;99.90
49236;DHT22;35067;48.134;8.378;2024-01-06T06:13:07;4.00;99.90
49236;DHT22;35067;48.134;8.378;2024-01-06T06:14:11;4.10;99.90
49236;DHT22;35067;48.134;8.378;2024-01-06T06:15:13;4.00;99.90
49236;DHT22;35067;48.134;8.378;2024-01-06T06:16:13;4.00;99.90
49236;DHT22;35067;48.134;8.378;2024-01-06T06:17:14;3.90;99.90
49236;DHT22;35067;48.134;8.378;2024-01-06T06:18:15;4.00;99.90
49236;DHT22;35067;48.134;8.378;2024-01-06T06:19:16;4.00;99.90
49236;DHT22;35067;48.134;8.378;2024-01-06T06:20:18;3.90;99.90
49236;DHT22;35067;48.134;8.378;2024-01-06T06:21:19;3.90;99.90
49236;DHT22;35067;48.134;8.378;2024-01-06T06:22:20;3.90;99.90
49236;DHT22;35067;48.134;8.378;2024-01-06T06:23:22;4.00;99.90
49236;DHT22;35067;48.134;8.378;2024-01-06T06:24:23;4.00;99.90
49236;DHT22;35067;48.134;8.378;2024-01-06T06:25:23;4.10;99.90
49236;DHT22;35067;48.134;8.378;2024-01-06T06:26:24;4.10;99.90
49236;DHT22;35067;48.134;8.378;2024-01-06T06:27:25;4.10;99.90
49236;DHT22;35067;48.134;8.378;2024-01-06T06:28:29;4.10;99.90
49236;DHT22;35067;48.134;8.378;2024-01-06T06:29:30;4.10;99.90
49236;DHT22;35067;48.134;8.378;2024-01-06T06:30:30;4.10;99.90